createdAt,value
2019-01-25T00:00:43.424Z,49.23
2019-01-25T00:03:10.603Z,43.33
2019-01-25T00:05:37.385Z,44.67
2019-01-25T00:08:04.469Z,41.23
2019-01-25T00:10:31.736Z,43.42
2019-01-25T00:12:58.873Z,42.13
2019-01-25T00:15:25.549Z,39.50
2019-01-25T00:17:52.205Z,36.70
2019-01-25T00:20:19.399Z,39.70
2019-01-25T00:22:46.551Z,42.50
2019-01-25T00:25:13.201Z,39.67
2019-01-25T00:27:40.338Z,40.40
2019-01-25T00:30:07.096Z,42.55
2019-01-25T00:32:34.242Z,43.50
2019-01-25T00:35:01.422Z,41.37
2019-01-25T00:37:28.532Z,39.53
2019-01-25T00:39:55.638Z,43.55
2019-01-25T00:42:22.741Z,43.90
2019-01-25T00:44:49.883Z,46.28
2019-01-25T00:47:16.928Z,46.60
2019-01-25T00:49:44.082Z,39.55
2019-01-25T00:52:10.732Z,40.00
2019-01-25T00:54:37.415Z,48.05
2019-01-25T00:57:04.142Z,38.75
2019-01-25T00:59:30.901Z,45.52
2019-01-25T01:01:57.753Z,54.38
2019-01-25T01:04:24.824Z,41.77
2019-01-25T01:06:51.993Z,45.55
2019-01-25T01:09:19.129Z,46.37
2019-01-25T01:11:45.842Z,39.50
2019-01-25T01:14:12.505Z,43.92
2019-01-25T01:16:39.166Z,40.52
2019-01-25T01:19:06.297Z,42.65
2019-01-25T01:21:33.347Z,46.80
2019-01-25T01:24:00.397Z,45.52
2019-01-25T01:26:27.645Z,39.67
2019-01-25T01:28:54.293Z,41.73
2019-01-25T01:31:21.066Z,49.58
2019-01-25T01:33:47.775Z,43.92
2019-01-25T01:36:14.549Z,46.50
2019-01-25T01:38:41.201Z,45.55
2019-01-25T01:41:08.278Z,39.67
2019-01-25T01:43:35.454Z,40.40
2019-01-25T01:46:02.491Z,43.23
2019-01-25T01:48:29.248Z,38.05
2019-01-25T01:50:56.262Z,38.35
2019-01-25T01:53:22.963Z,44.30
2019-01-25T01:55:49.709Z,44.35
2019-01-25T01:58:16.793Z,42.25
2019-01-25T02:00:43.867Z,46.42
2019-01-25T02:03:11.004Z,47.08
2019-01-25T02:05:38.064Z,48.60
2019-01-25T02:08:04.703Z,45.28
2019-01-25T02:10:31.846Z,49.63
2019-01-25T02:12:58.506Z,45.85
2019-01-25T02:15:25.236Z,46.40
2019-01-25T02:17:52.377Z,42.33
2019-01-25T02:20:19.418Z,42.33
2019-01-25T02:22:46.174Z,48.52
2019-01-25T02:25:13.216Z,43.28
2019-01-25T02:27:40.259Z,43.65
2019-01-25T02:30:07.414Z,49.58
2019-01-25T02:32:34.440Z,44.25
2019-01-25T02:35:01.104Z,47.50
2019-01-25T02:37:28.265Z,44.77
2019-01-25T02:39:55.297Z,43.83
2019-01-25T02:42:22.346Z,45.12
2019-01-25T02:44:49.031Z,48.40
2019-01-25T02:47:15.761Z,51.77
2019-01-25T02:49:42.877Z,43.13
2019-01-25T02:52:09.926Z,44.18
2019-01-25T02:54:37.180Z,41.40
2019-01-25T02:57:04.350Z,41.80
2019-01-25T02:59:31.347Z,44.60
2019-01-25T03:01:58.522Z,45.55
2019-01-25T03:04:25.593Z,46.60
2019-01-25T03:06:52.241Z,46.30
2019-01-25T03:09:19.084Z,41.37
2019-01-25T03:11:46.192Z,41.75
2019-01-25T03:14:13.344Z,42.20
2019-01-25T03:16:40.001Z,44.83
2019-01-25T03:19:06.739Z,45.55
2019-01-25T03:21:33.467Z,43.65
2019-01-25T03:24:01.179Z,44.40
2019-01-25T03:26:28.312Z,47.55
2019-01-25T03:28:54.994Z,46.10
2019-01-25T03:31:21.753Z,46.35
2019-01-25T03:33:48.810Z,39.60
2019-01-25T03:36:15.869Z,44.48
2019-01-25T03:38:43.007Z,44.65
2019-01-25T03:41:09.725Z,40.55
2019-01-25T03:43:36.405Z,46.53
2019-01-25T03:46:03.795Z,50.43
2019-01-25T03:48:30.867Z,42.00
2019-01-25T03:50:57.960Z,43.23
2019-01-25T03:53:24.726Z,43.48
2019-01-25T03:55:51.830Z,39.88
2019-01-25T03:58:18.881Z,41.05
2019-01-25T04:00:46.032Z,46.63
2019-01-25T04:03:12.711Z,40.78
2019-01-25T04:05:39.562Z,51.85
2019-01-25T04:08:06.683Z,42.62
2019-01-25T04:10:33.393Z,46.25
2019-01-25T04:13:00.444Z,37.93
2019-01-25T04:15:27.499Z,44.00
2019-01-25T04:17:54.653Z,40.98
2019-01-25T04:20:21.723Z,47.10
2019-01-25T04:22:48.851Z,49.98
2019-01-25T04:25:15.605Z,41.35
2019-01-25T04:27:42.317Z,43.98
2019-01-25T04:30:09.352Z,48.52
2019-01-25T04:32:36.594Z,43.75
2019-01-25T04:35:03.214Z,40.15
2019-01-25T04:37:30.290Z,37.42
2019-01-25T04:39:57.481Z,46.83
2019-01-25T04:42:24.612Z,44.90
2019-01-25T04:44:51.667Z,46.68
2019-01-25T04:47:18.838Z,47.03
2019-01-25T04:49:45.974Z,47.30
2019-01-25T04:52:13.123Z,44.90
2019-01-25T04:54:40.242Z,43.58
2019-01-25T04:57:07.318Z,53.20
2019-01-25T04:59:34.361Z,42.38
2019-01-25T05:02:01.539Z,48.68
2019-01-25T05:04:28.655Z,46.00
2019-01-25T05:06:55.720Z,56.25
2019-01-25T05:09:22.861Z,50.12
2019-01-25T05:11:50.014Z,48.30
2019-01-25T05:14:17.153Z,50.98
2019-01-25T05:16:43.841Z,45.33
2019-01-25T05:19:10.975Z,53.08
2019-01-25T05:21:38.070Z,43.05
2019-01-25T05:24:04.764Z,47.48
2019-01-25T05:26:31.478Z,43.25
2019-01-25T05:28:58.627Z,42.55
2019-01-25T05:31:25.341Z,45.73
2019-01-25T05:33:52.060Z,46.02
2019-01-25T05:36:19.236Z,38.35
2019-01-25T05:38:46.310Z,50.35
2019-01-25T05:41:13.339Z,46.65
2019-01-25T05:43:40.499Z,43.55
2019-01-25T05:46:07.645Z,46.40
2019-01-25T05:48:34.782Z,44.58
2019-01-25T05:51:01.852Z,40.30
2019-01-25T05:53:28.615Z,44.25
2019-01-25T05:55:55.747Z,50.98
2019-01-25T05:58:22.914Z,42.13
2019-01-25T06:00:50.039Z,41.50
2019-01-25T06:03:17.098Z,43.00
2019-01-25T06:05:44.228Z,50.15
2019-01-25T06:08:10.947Z,47.95
2019-01-25T06:10:38.039Z,48.23
2019-01-25T06:13:04.708Z,47.95
2019-01-25T06:15:31.437Z,48.38
2019-01-25T06:17:58.436Z,51.00
2019-01-25T06:20:25.204Z,46.02
2019-01-25T06:22:52.325Z,45.20
2019-01-25T06:25:19.055Z,48.17
2019-01-25T06:27:46.140Z,49.77
2019-01-25T06:30:13.288Z,47.33
2019-01-25T06:32:40.432Z,46.05
2019-01-25T06:35:07.587Z,45.63
2019-01-25T06:37:34.312Z,48.02
2019-01-25T06:40:01.355Z,50.63
2019-01-25T06:42:28.448Z,52.73
2019-01-25T06:44:55.579Z,59.98
2019-01-25T06:47:22.617Z,54.67
2019-01-25T06:49:50.327Z,46.10
2019-01-25T06:52:17.084Z,48.33
2019-01-25T06:54:44.173Z,47.62
2019-01-25T06:57:11.329Z,52.43
2019-01-25T06:59:38.048Z,51.80
2019-01-25T07:02:04.731Z,43.10
2019-01-25T07:04:31.421Z,48.05
2019-01-25T07:06:58.488Z,49.27
2019-01-25T07:09:25.650Z,52.27
2019-01-25T07:11:52.330Z,49.05
2019-01-25T07:14:19.047Z,46.53
2019-01-25T07:16:46.156Z,56.33
2019-01-25T07:19:12.880Z,52.83
2019-01-25T07:21:39.960Z,49.73
2019-01-25T07:24:07.113Z,54.53
2019-01-25T07:26:34.268Z,47.45
2019-01-25T07:29:01.037Z,48.42
2019-01-25T07:31:29.871Z,60.55
2019-01-25T07:33:56.736Z,52.10
2019-01-25T07:36:23.501Z,52.73
2019-01-25T07:38:50.629Z,50.05
2019-01-25T07:41:18.470Z,49.55
2019-01-25T07:43:45.668Z,56.30
2019-01-25T07:46:12.795Z,54.45
2019-01-25T07:48:39.993Z,54.95
2019-01-25T07:51:07.049Z,60.03
2019-01-25T07:53:33.735Z,53.85
2019-01-25T07:56:00.866Z,54.40
2019-01-25T07:58:27.596Z,53.78
2019-01-25T08:00:54.285Z,58.02
2019-01-25T08:03:21.461Z,52.60
2019-01-25T08:05:48.706Z,57.15
2019-01-25T08:08:15.865Z,47.27
2019-01-25T08:10:43.582Z,58.40
2019-01-25T08:13:10.255Z,54.65
2019-01-25T08:15:37.371Z,52.85
2019-01-25T08:18:04.390Z,57.03
2019-01-25T08:20:31.459Z,57.78
2019-01-25T08:22:58.608Z,50.98
2019-01-25T08:25:25.288Z,53.45
2019-01-25T08:27:51.997Z,55.67
2019-01-25T08:30:19.180Z,60.85
2019-01-25T08:32:46.277Z,56.73
2019-01-25T08:35:13.443Z,52.10
2019-01-25T08:37:40.100Z,49.60
2019-01-25T08:40:06.875Z,49.88
2019-01-25T08:42:33.557Z,64.35
2019-01-25T08:45:01.097Z,61.37
2019-01-25T08:47:28.294Z,62.53
2019-01-25T08:49:57.904Z,59.93
2019-01-25T08:52:24.106Z,56.63
2019-01-25T08:54:50.866Z,54.77
2019-01-25T08:57:17.965Z,47.85
2019-01-25T08:59:45.916Z,51.28
2019-01-25T09:02:13.435Z,43.95
2019-01-25T09:04:40.127Z,47.30
2019-01-25T09:07:07.033Z,48.33
2019-01-25T09:09:33.724Z,46.58
2019-01-25T09:12:00.824Z,47.30
2019-01-25T09:14:27.952Z,46.50
2019-01-25T09:16:55.103Z,51.18
2019-01-25T09:19:22.383Z,44.98
2019-01-25T09:21:49.272Z,50.50
2019-01-25T09:24:16.350Z,48.85
2019-01-25T09:26:43.527Z,47.60
2019-01-25T09:29:10.627Z,46.55
2019-01-25T09:31:37.327Z,52.80
2019-01-25T09:34:04.440Z,47.08
2019-01-25T09:36:31.489Z,52.65
2019-01-25T09:38:58.204Z,52.10
2019-01-25T09:41:25.375Z,56.73
2019-01-25T09:43:57.380Z,50.78
2019-01-25T09:46:24.473Z,51.18
2019-01-25T09:48:51.194Z,48.80
2019-01-25T09:51:18.375Z,50.58
2019-01-25T09:53:45.038Z,52.35
2019-01-25T09:56:11.702Z,49.60
2019-01-25T09:58:38.415Z,49.13
2019-01-25T10:01:06.323Z,52.33
2019-01-25T10:03:33.051Z,51.33
2019-01-25T10:06:00.042Z,52.10
2019-01-25T10:08:27.101Z,47.03
2019-01-25T10:10:53.765Z,50.03
2019-01-25T10:13:20.885Z,48.20
2019-01-25T10:15:47.703Z,53.40
2019-01-25T10:18:14.758Z,53.63
2019-01-25T10:20:41.849Z,51.23
2019-01-25T10:23:08.989Z,48.35
2019-01-25T10:31:14.213Z,50.43
2019-01-25T10:33:41.316Z,49.67
2019-01-25T10:36:37.397Z,53.68
2019-01-25T10:39:13.541Z,53.55
2019-01-25T10:47:08.444Z,52.62
2019-01-25T10:49:35.069Z,53.95
2019-01-25T11:11:00.213Z,62.65
2019-01-25T11:11:56.451Z,59.38
2019-01-25T11:13:34.188Z,58.23
2019-01-25T11:16:01.133Z,67.22
2019-01-25T11:18:29.625Z,51.00
2019-01-25T11:23:53.654Z,68.30
2019-01-25T11:27:00.285Z,64.45
2019-01-25T11:32:20.617Z,59.95
2019-01-25T11:33:41.936Z,74.47
2019-01-25T11:34:50.143Z,54.60
2019-01-25T11:37:18.792Z,68.00
2019-01-25T11:39:49.225Z,44.50
2019-01-25T11:42:15.419Z,71.50
2019-01-25T11:44:42.605Z,58.95
2019-01-25T11:47:09.723Z,63.17
2019-01-25T11:49:40.410Z,69.58
2019-01-25T11:54:53.813Z,72.30
2019-01-25T11:57:22.602Z,68.97
2019-01-25T11:59:48.830Z,63.13
2019-01-25T12:02:20.947Z,71.65
2019-01-25T12:04:44.491Z,72.12
2019-01-25T12:07:11.225Z,66.50
2019-01-25T12:09:37.973Z,59.88
2019-01-25T12:12:04.695Z,68.80
2019-01-25T12:14:31.801Z,65.37
2019-01-25T12:19:47.416Z,70.83
2019-01-25T12:22:20.192Z,66.12
2019-01-25T12:24:46.879Z,70.97
2019-01-25T12:27:13.636Z,64.92
2019-01-25T12:29:40.484Z,70.78
2019-01-25T12:32:07.640Z,68.65
2019-01-25T12:34:36.150Z,72.30
2019-01-25T12:37:04.677Z,68.22
2019-01-25T12:39:32.700Z,66.15
2019-01-25T12:41:59.865Z,71.17
2019-01-25T12:44:27.043Z,70.22
2019-01-25T12:46:53.868Z,69.70
2019-01-25T12:49:21.020Z,72.10
2019-01-25T12:51:48.167Z,72.35
2019-01-25T12:54:15.229Z,74.37
2019-01-25T12:56:42.390Z,74.35
2019-01-25T12:59:09.147Z,78.80
2019-01-25T13:01:36.239Z,74.87
2019-01-25T13:04:03.361Z,76.97
2019-01-25T13:06:43.547Z,80.00
2019-01-25T13:09:10.278Z,52.58
2019-01-25T13:11:37.431Z,98.37
2019-01-25T13:14:04.630Z,88.27
2019-01-25T13:16:31.742Z,91.92
2019-01-25T13:18:58.508Z,84.52
2019-01-25T13:21:25.164Z,92.57
2019-01-25T13:23:51.900Z,88.37
2019-01-25T13:26:18.669Z,92.88
2019-01-25T13:28:45.343Z,90.03
2019-01-25T13:31:12.506Z,84.52
2019-01-25T13:33:39.275Z,94.83
2019-01-25T13:36:07.058Z,86.45
2019-01-25T13:38:33.712Z,90.22
2019-01-25T13:41:00.766Z,97.65
2019-01-25T13:43:27.490Z,90.55
2019-01-25T13:45:54.567Z,87.80
2019-01-25T13:48:21.546Z,81.50
2019-01-25T13:50:48.679Z,86.67
2019-01-25T13:53:15.395Z,90.10
2019-01-25T13:55:42.746Z,90.57
2019-01-25T13:58:09.566Z,90.25
2019-01-25T14:00:36.281Z,89.72
2019-01-25T14:03:03.472Z,61.70
2019-01-25T14:05:30.160Z,97.50
2019-01-25T14:07:57.305Z,95.62
2019-01-25T14:10:24.465Z,89.42
2019-01-25T14:12:51.252Z,98.22
2019-01-25T14:15:18.368Z,93.55
2019-01-25T14:17:45.538Z,96.05
2019-01-25T14:20:23.388Z,87.72
2019-01-25T14:26:12.375Z,96.80
2019-01-25T14:30:53.975Z,93.87
2019-01-25T14:33:20.669Z,94.35
2019-01-25T14:35:47.853Z,98.10
2019-01-25T14:38:14.598Z,94.97
2019-01-25T14:40:41.291Z,86.02
2019-01-25T14:43:08.163Z,95.47
2019-01-25T14:45:35.780Z,87.42
2019-01-25T14:48:02.506Z,94.00
2019-01-25T14:50:29.702Z,67.50
2019-01-25T14:52:56.458Z,91.20
2019-01-25T14:55:23.182Z,89.32
2019-01-25T14:57:50.398Z,85.80
2019-01-25T15:00:17.111Z,84.50
2019-01-25T15:02:44.008Z,83.80
2019-01-25T15:05:10.703Z,87.27
2019-01-25T15:07:37.892Z,86.97
2019-01-25T15:10:04.630Z,95.83
2019-01-25T15:12:31.884Z,78.15
2019-01-25T15:14:59.056Z,89.07
2019-01-25T15:17:25.704Z,93.20
2019-01-25T15:19:52.452Z,88.80
2019-01-25T15:22:19.561Z,94.67
2019-01-25T15:24:46.710Z,95.62
2019-01-25T15:27:13.850Z,94.97
2019-01-25T15:29:40.515Z,103.58
2019-01-25T15:32:07.286Z,97.25
2019-01-25T15:34:34.332Z,98.03
2019-01-25T15:37:01.525Z,98.33
2019-01-25T15:39:28.206Z,105.83
2019-01-25T15:41:55.409Z,107.50
2019-01-25T15:44:22.065Z,106.17
2019-01-25T15:46:48.728Z,104.23
2019-01-25T15:49:15.487Z,106.22
2019-01-25T15:51:42.563Z,104.72
2019-01-25T15:54:09.595Z,114.75
2019-01-25T15:56:36.794Z,115.65
2019-01-25T15:59:03.470Z,109.92
2019-01-25T16:01:30.540Z,109.95
2019-01-25T16:03:57.735Z,111.00
2019-01-25T16:06:24.451Z,90.65
2019-01-25T16:08:51.558Z,113.47
2019-01-25T16:11:18.313Z,102.75
2019-01-25T16:13:44.972Z,112.10
2019-01-25T16:16:12.126Z,108.07
2019-01-25T16:18:39.299Z,107.92
2019-01-25T16:21:06.814Z,112.52
2019-01-25T16:23:33.978Z,116.25
2019-01-25T16:26:00.689Z,111.80
2019-01-25T16:28:27.755Z,106.83
2019-01-25T16:30:54.896Z,114.03
2019-01-25T16:33:21.944Z,115.75
2019-01-25T16:35:48.983Z,118.60
2019-01-25T16:38:16.184Z,120.02
2019-01-25T16:40:43.023Z,118.45
2019-01-25T16:43:09.653Z,100.80
2019-01-25T16:45:36.804Z,113.47
2019-01-25T16:48:03.621Z,121.33
2019-01-25T16:50:30.687Z,126.78
2019-01-25T16:52:57.413Z,117.20
2019-01-25T16:55:24.586Z,115.80
2019-01-25T16:57:51.753Z,114.82
2019-01-25T17:00:18.884Z,108.20
2019-01-25T17:02:46.115Z,107.80
2019-01-25T17:05:13.331Z,90.92
2019-01-25T17:07:40.972Z,95.72
2019-01-25T17:10:08.093Z,109.87
2019-01-25T17:12:35.119Z,107.87
2019-01-25T17:15:02.977Z,100.22
2019-01-25T17:17:30.701Z,88.42
2019-01-25T17:19:59.455Z,104.20
2019-01-25T17:22:26.663Z,97.37
2019-01-25T17:24:53.819Z,90.95
2019-01-25T17:27:22.553Z,88.33
2019-01-25T17:29:51.271Z,107.03
2019-01-25T17:32:19.894Z,95.22
2019-01-25T17:34:47.845Z,106.78
2019-01-25T17:37:15.697Z,94.58
2019-01-25T17:39:44.489Z,74.42
2019-01-25T17:42:12.321Z,99.67
2019-01-25T17:44:41.443Z,102.12
2019-01-25T17:47:09.528Z,105.15
2019-01-25T17:49:37.412Z,103.35
2019-01-25T17:52:05.156Z,99.87
2019-01-25T17:54:33.025Z,95.90
2019-01-25T17:57:00.809Z,107.90
2019-01-25T17:59:28.557Z,102.27
2019-01-25T18:01:55.426Z,85.28
2019-01-25T18:04:22.096Z,61.92
2019-01-25T18:06:49.121Z,59.42
2019-01-25T18:09:16.294Z,93.40
2019-01-25T18:11:43.528Z,96.67
2019-01-25T18:14:10.210Z,97.22
2019-01-25T18:16:36.924Z,85.75
2019-01-25T18:19:03.653Z,93.72
2019-01-25T18:21:30.688Z,98.33
2019-01-25T18:23:57.387Z,88.78
2019-01-25T18:26:24.583Z,99.20
2019-01-25T18:28:51.631Z,91.65
2019-01-25T18:31:19.286Z,95.77
2019-01-25T18:33:46.473Z,94.45
2019-01-25T18:36:13.604Z,87.47
2019-01-25T18:38:40.766Z,89.10
2019-01-25T18:41:07.660Z,92.12
2019-01-25T18:43:34.368Z,81.55
2019-01-25T18:46:01.315Z,86.85
2019-01-25T18:48:30.111Z,97.12
2019-01-25T18:50:57.237Z,72.00
2019-01-25T18:53:24.378Z,104.67
2019-01-25T18:55:51.075Z,94.87
2019-01-25T18:58:18.249Z,84.85
2019-01-25T19:00:44.960Z,85.95
2019-01-25T19:03:12.153Z,96.00
2019-01-25T19:05:39.841Z,94.65
2019-01-25T19:08:07.001Z,95.87
2019-01-25T19:10:34.127Z,93.80
2019-01-25T19:13:01.945Z,99.45
2019-01-25T19:15:29.137Z,108.75
2019-01-25T19:17:55.817Z,91.85
2019-01-25T19:20:22.483Z,103.90
2019-01-25T19:22:49.593Z,102.20
2019-01-25T19:25:16.245Z,99.40
2019-01-25T19:27:43.382Z,93.30
2019-01-25T19:30:10.567Z,95.80
2019-01-25T19:32:37.421Z,106.85
2019-01-25T19:35:04.083Z,115.32
2019-01-25T19:37:31.028Z,107.90
2019-01-25T19:39:58.108Z,109.90
2019-01-25T19:42:24.782Z,102.80
2019-01-25T19:44:51.546Z,111.72
2019-01-25T19:47:18.202Z,112.37
2019-01-25T19:49:44.891Z,106.32
2019-01-25T19:52:12.094Z,105.35
2019-01-25T19:54:39.139Z,115.55
2019-01-25T19:57:06.307Z,107.75
2019-01-25T19:59:32.997Z,109.70
2019-01-25T20:01:59.687Z,122.37
2019-01-25T20:04:26.840Z,113.12
2019-01-25T20:06:53.966Z,109.83
2019-01-25T20:09:20.632Z,96.12
2019-01-25T20:11:47.366Z,109.00
2019-01-25T20:14:14.026Z,110.08
2019-01-25T20:16:41.222Z,99.92
2019-01-25T20:19:07.957Z,105.50
2019-01-25T20:21:34.914Z,98.37
2019-01-25T20:24:02.110Z,93.87
2019-01-25T20:26:29.206Z,109.05
2019-01-25T20:28:56.264Z,116.70
2019-01-25T20:31:23.074Z,104.25
2019-01-25T20:33:49.783Z,128.93
2019-01-25T20:36:16.443Z,111.68
2019-01-25T20:38:43.449Z,116.53
2019-01-25T20:41:10.496Z,111.03
2019-01-25T20:43:37.235Z,116.22
2019-01-25T20:46:04.040Z,108.85
2019-01-25T20:48:31.132Z,115.35
2019-01-25T20:50:57.830Z,104.07
2019-01-25T20:53:24.625Z,120.08
2019-01-25T20:55:52.415Z,116.37
2019-01-25T20:58:19.074Z,107.30
2019-01-25T21:00:46.354Z,122.25
2019-01-25T21:03:13.404Z,130.37
2019-01-25T21:05:41.222Z,131.18
2019-01-25T21:08:08.445Z,134.90
2019-01-25T21:10:36.236Z,135.07
2019-01-25T21:13:02.964Z,158.05
2019-01-25T21:15:35.022Z,140.37
2019-01-25T21:17:58.443Z,139.65
2019-01-25T21:20:25.110Z,157.65
2019-01-25T21:22:52.248Z,158.70
2019-01-25T21:25:19.277Z,136.92
2019-01-25T21:27:45.949Z,148.53
2019-01-25T21:30:12.683Z,130.97
2019-01-25T21:32:39.878Z,109.75
2019-01-25T21:35:06.958Z,119.72
2019-01-25T21:37:34.128Z,123.20
2019-01-25T21:40:08.166Z,119.57
2019-01-25T21:42:29.663Z,110.37
2019-01-25T21:44:56.888Z,125.62
2019-01-25T21:47:23.848Z,150.12
2019-01-25T21:49:51.000Z,183.25
2019-01-25T21:52:18.034Z,198.93
2019-01-25T21:54:45.149Z,178.23
2019-01-25T21:57:12.316Z,154.30
2019-01-25T21:59:39.418Z,166.57
2019-01-25T22:02:06.558Z,175.62
2019-01-25T22:04:33.709Z,154.87
2019-01-25T22:07:00.891Z,150.25
2019-01-25T22:09:28.004Z,154.38
2019-01-25T22:11:55.716Z,138.72
2019-01-25T22:14:22.381Z,151.35
2019-01-25T22:16:49.589Z,145.95
2019-01-25T22:19:16.717Z,149.47
2019-01-25T22:21:43.393Z,144.10
2019-01-25T22:24:11.263Z,134.37
2019-01-25T22:26:37.952Z,128.72
2019-01-25T22:29:04.650Z,124.02
2019-01-25T22:31:32.511Z,118.62
2019-01-25T22:33:59.591Z,122.40
2019-01-25T22:36:26.687Z,121.20
2019-01-25T22:38:54.427Z,123.58
2019-01-25T22:41:21.161Z,121.67
2019-01-25T22:43:48.321Z,128.50
2019-01-25T22:46:15.455Z,113.90
2019-01-25T22:48:42.496Z,129.38
2019-01-25T22:51:09.686Z,117.13
2019-01-25T22:53:36.460Z,121.17
2019-01-25T22:56:03.177Z,138.30
2019-01-25T22:58:30.302Z,141.85
2019-01-25T23:00:57.464Z,148.35
2019-01-25T23:03:24.596Z,164.25
2019-01-25T23:05:51.584Z,146.57
2019-01-25T23:08:18.247Z,154.78
2019-01-25T23:10:45.304Z,154.25
2019-01-25T23:13:12.483Z,170.87
2019-01-25T23:15:39.290Z,190.73
2019-01-25T23:18:06.423Z,213.03
2019-01-25T23:20:34.159Z,256.13
2019-01-25T23:23:00.867Z,245.33
2019-01-25T23:25:28.078Z,194.97
2019-01-25T23:27:55.224Z,156.60
2019-01-25T23:30:21.987Z,156.35
2019-01-25T23:32:49.094Z,135.25
2019-01-25T23:35:16.861Z,134.63
2019-01-25T23:37:44.032Z,132.22
2019-01-25T23:40:11.185Z,139.03
2019-01-25T23:42:38.337Z,131.72
2019-01-25T23:45:05.164Z,135.30
2019-01-25T23:47:32.300Z,136.00
2019-01-25T23:49:59.323Z,145.17
2019-01-25T23:52:26.053Z,155.52
2019-01-25T23:54:53.857Z,180.07
2019-01-25T23:57:21.650Z,177.65
2019-01-25T23:59:48.763Z,167.20
